Time;durP1;ratioP1;P1;durP2;ratioP2;P2;SDS_P1;SDS_P2;PMS_P1;PMS_P2;Temp;Humidity;BMP_temperature;BMP_pressure;BME280_temperature;BME280_humidity;BME280_pressure;Samples;Min_cycle;Max_cycle;Signal;HPM_P1;HPM_P2
2021/11/23 00:01:43;;;;;;;58.97;43.85;;;256.80;2252.80;;;;;;5096458;28;20040;-83
2021/11/23 00:04:09;;;;;;;66.18;46.67;;;256.80;2252.80;;;;;;5097483;28;20370;-82
2021/11/23 00:06:37;;;;;;;81.85;56.90;;;256.80;2252.80;;;;;;5096524;28;20031;-81
2021/11/23 00:09:04;;;;;;;65.60;47.33;;;256.70;2252.80;;;;;;5096278;28;20082;-86
2021/11/23 00:11:30;;;;;;;80.07;55.33;;;256.70;2252.80;;;;;;5096411;28;20025;-84
2021/11/23 00:13:56;;;;;;;108.28;71.28;;;256.70;2252.80;;;;;;5096182;28;20478;-84
2021/11/23 00:16:22;;;;;;;107.35;69.07;;;256.70;2252.80;;;;;;5096253;28;20024;-86
2021/11/23 00:18:48;;;;;;;140.50;86.53;;;256.70;2252.80;;;;;;5096385;28;20032;-79
2021/11/23 00:21:16;;;;;;;119.35;79.00;;;256.80;2252.80;;;;;;5096139;28;20024;-82
2021/11/23 00:23:42;;;;;;;66.80;49.47;;;256.50;2252.80;;;;;;5095974;28;20032;-83
2021/11/23 00:26:09;;;;;;;92.25;63.50;;;256.50;2252.80;;;;;;5095986;28;20027;-84
2021/11/23 00:28:35;;;;;;;82.80;60.70;;;256.50;2252.80;;;;;;5095929;28;20068;-84
2021/11/23 00:31:01;;;;;;;80.15;56.08;;;256.50;2252.80;;;;;;5095628;28;20107;-84
2021/11/23 00:33:31;;;;;;;83.85;60.60;;;256.50;2252.80;;;;;;5096153;28;20027;-85
2021/11/23 00:35:58;;;;;;;60.67;47.15;;;256.50;2252.80;;;;;;5096144;28;20034;-82
2021/11/23 00:38:24;;;;;;;63.70;46.78;;;256.50;2252.80;;;;;;5095709;28;20426;-84
2021/11/23 00:40:50;;;;;;;54.63;44.50;;;256.50;2252.80;;;;;;5096045;28;20456;-83
2021/11/23 00:43:16;;;;;;;71.85;53.35;;;256.40;2252.80;;;;;;5097335;28;20024;-82
2021/11/23 00:45:42;;;;;;;52.33;43.33;;;256.30;2252.80;;;;;;5095757;28;20040;-84
2021/11/23 00:48:09;;;;;;;49.53;40.35;;;256.40;2252.80;;;;;;5095881;28;20520;-84
2021/11/23 00:50:35;;;;;;;55.65;42.72;;;256.40;2252.80;;;;;;5095524;28;20024;-84
2021/11/23 00:53:02;;;;;;;63.38;47.58;;;256.20;2252.80;;;;;;5095525;28;20020;-84
2021/11/23 00:55:30;;;;;;;60.92;45.85;;;256.40;2252.80;;;;;;5095094;28;20494;-82
2021/11/23 00:57:56;;;;;;;54.55;45.15;;;256.40;2252.80;;;;;;5095168;28;20025;-84
2021/11/23 01:00:22;;;;;;;77.40;53.53;;;256.40;2252.80;;;;;;5095461;28;20024;-84
2021/11/23 01:02:47;;;;;;;74.00;53.55;;;256.30;2252.80;;;;;;5095266;28;20032;-84
2021/11/23 01:05:13;;;;;;;68.68;49.40;;;256.40;2252.80;;;;;;5095300;28;20028;-84
2021/11/23 01:07:39;;;;;;;61.50;46.03;;;256.30;2252.80;;;;;;5095148;28;20368;-84
2021/11/23 01:10:07;;;;;;;77.32;53.22;;;256.20;2252.80;;;;;;5096696;28;20032;-85
2021/11/23 01:12:34;;;;;;;64.93;48.15;;;256.20;2252.80;;;;;;5095146;28;20085;-84
2021/11/23 01:14:59;;;;;;;61.53;46.85;;;256.20;2252.80;;;;;;5095472;28;20035;-84
2021/11/23 01:17:25;;;;;;;64.22;51.10;;;256.20;2252.80;;;;;;5096102;28;20024;-84
2021/11/23 01:19:51;;;;;;;65.75;50.47;;;256.20;2252.80;;;;;;5094785;28;20170;-84
2021/11/23 01:22:17;;;;;;;62.58;48.88;;;256.20;2252.80;;;;;;5095173;28;20055;-84
2021/11/23 01:24:43;;;;;;;62.25;47.75;;;256.20;2252.80;;;;;;5095053;28;20028;-85
2021/11/23 01:27:09;;;;;;;63.50;48.10;;;256.20;2252.80;;;;;;5094829;28;20540;-84
2021/11/23 01:29:35;;;;;;;62.45;48.33;;;256.10;2252.80;;;;;;5095111;28;20028;-84
2021/11/23 01:32:02;;;;;;;70.68;52.90;;;256.20;2252.80;;;;;;5094919;28;20032;-84
2021/11/23 01:34:28;;;;;;;70.25;53.97;;;256.20;2252.80;;;;;;5094577;28;20030;-83
2021/11/23 01:36:54;;;;;;;66.40;50.42;;;256.20;2252.80;;;;;;5096201;28;20027;-84
2021/11/23 01:39:20;;;;;;;60.78;46.63;;;256.20;2252.80;;;;;;5096083;28;20024;-85
2021/11/23 01:41:46;;;;;;;55.65;45.75;;;256.20;2252.80;;;;;;5094654;28;20379;-84
2021/11/23 01:44:12;;;;;;;56.92;45.75;;;256.20;2252.80;;;;;;5094665;28;20035;-83
2021/11/23 01:46:38;;;;;;;55.53;45.38;;;256.20;2252.80;;;;;;5094838;28;20025;-84
2021/11/23 01:49:04;;;;;;;58.72;47.40;;;256.20;2252.80;;;;;;5094581;28;20177;-84
2021/11/23 01:51:30;;;;;;;58.88;44.42;;;256.20;2252.80;;;;;;5094506;28;20028;-84
2021/11/23 01:53:56;;;;;;;59.38;40.83;;;256.20;2252.80;;;;;;5094215;28;20055;-84
2021/11/23 01:56:22;;;;;;;51.03;36.33;;;256.10;2252.80;;;;;;5093865;28;20044;-84
2021/11/23 01:58:48;;;;;;;54.90;37.67;;;256.10;2252.80;;;;;;5094448;28;20034;-84
2021/11/23 02:01:15;;;;;;;50.55;35.42;;;256.10;2252.80;;;;;;5093552;28;20413;-84
2021/11/23 02:03:41;;;;;;;49.28;37.35;;;256.00;2252.80;;;;;;5094381;28;20035;-84
2021/11/23 02:06:07;;;;;;;53.35;39.20;;;256.00;2252.80;;;;;;5095515;28;20028;-84
2021/11/23 02:08:34;;;;;;;48.42;37.08;;;230.90;2252.80;;;;;;5093564;28;20119;-84
2021/11/23 02:11:00;;;;;;;46.15;34.38;;;256.00;2252.80;;;;;;5093906;28;20020;-84
2021/11/23 02:13:29;;;;;;;46.28;34.50;;;256.00;2252.80;;;;;;5094025;28;20371;-85
2021/11/23 02:15:58;;;;;;;45.58;34.80;;;256.10;2252.80;;;;;;5093732;28;20482;-84
2021/11/23 02:18:26;;;;;;;44.33;34.90;;;256.00;2252.80;;;;;;5093837;28;20491;-83
2021/11/23 02:20:53;;;;;;;47.90;36.70;;;256.00;2252.80;;;;;;5094254;28;20035;-83
2021/11/23 02:23:19;;;;;;;46.65;35.33;;;256.10;2252.80;;;;;;5093792;28;20123;-83
2021/11/23 02:25:46;;;;;;;44.45;33.53;;;256.00;2252.80;;;;;;5095568;28;20031;-83
2021/11/23 02:28:12;;;;;;;42.95;33.03;;;256.00;2252.80;;;;;;5093952;28;20031;-83
2021/11/23 02:30:44;;;;;;;46.72;33.05;;;256.00;2252.80;;;;;;5093550;28;20024;-84
2021/11/23 02:33:11;;;;;;;51.53;36.78;;;256.00;2252.80;;;;;;5093859;28;20047;-84
2021/11/23 02:35:37;;;;;;;59.33;39.33;;;256.00;2252.80;;;;;;5093745;28;20460;-84
2021/11/23 02:38:03;;;;;;;72.40;47.38;;;256.00;2252.80;;;;;;5093478;28;20038;-83
2021/11/23 02:40:29;;;;;;;57.83;39.25;;;256.00;2252.80;;;;;;5093581;28;20032;-83
2021/11/23 02:42:55;;;;;;;59.50;39.15;;;256.10;2252.80;;;;;;5093375;28;20059;-84
2021/11/23 02:45:23;;;;;;;58.88;40.20;;;231.30;2252.80;;;;;;5093426;28;20024;-83
2021/11/23 02:47:51;;;;;;;63.58;42.70;;;256.00;2252.80;;;;;;5094822;28;20052;-84
2021/11/23 02:50:17;;;;;;;51.45;37.65;;;256.00;2252.80;;;;;;5093384;28;20031;-84
2021/11/23 02:52:45;;;;;;;40.88;31.50;;;256.00;2252.80;;;;;;5095073;28;20046;-84
2021/11/23 02:55:11;;;;;;;43.63;33.30;;;256.90;2252.80;;;;;;5094482;28;20372;-83
2021/11/23 02:57:38;;;;;;;42.42;32.80;;;256.00;2252.80;;;;;;5093437;28;20067;-84
2021/11/23 03:00:07;;;;;;;39.03;30.85;;;256.00;2252.80;;;;;;5093415;28;20039;-83
2021/11/23 03:02:33;;;;;;;47.20;34.58;;;231.30;2252.80;;;;;;5093633;28;20024;-83
2021/11/23 03:05:00;;;;;;;33.42;28.90;;;231.30;2252.80;;;;;;5094566;28;20451;-83
2021/11/23 03:07:25;;;;;;;33.72;26.70;;;231.30;2252.80;;;;;;5093372;28;20021;-84
2021/11/23 03:09:51;;;;;;;29.77;23.40;;;231.30;2252.80;;;;;;5093550;28;20055;-84
2021/11/23 03:12:25;;;;;;;37.75;28.42;;;231.30;2252.80;;;;;;5094059;28;20111;-84
2021/11/23 03:14:51;;;;;;;37.60;27.65;;;231.30;2252.80;;;;;;5092965;28;20371;-83
2021/11/23 03:17:18;;;;;;;33.35;25.10;;;231.30;2252.80;;;;;;5093221;28;20027;-84
2021/11/23 03:19:46;;;;;;;35.92;26.50;;;231.30;2252.80;;;;;;5092872;28;20034;-84
2021/11/23 03:22:13;;;;;;;29.83;24.05;;;231.20;2252.80;;;;;;5093181;28;20028;-83
2021/11/23 03:24:40;;;;;;;34.10;26.33;;;231.30;2252.80;;;;;;5093218;28;20020;-84
2021/11/23 03:27:07;;;;;;;36.35;27.05;;;231.20;2252.80;;;;;;5092974;28;20024;-84
2021/11/23 03:29:34;;;;;;;34.03;24.67;;;231.10;2252.80;;;;;;5093746;28;20032;-84
2021/11/23 03:32:00;;;;;;;29.92;22.73;;;231.30;2252.80;;;;;;5092718;28;20067;-83
2021/11/23 03:34:27;;;;;;;32.03;23.80;;;231.10;2252.80;;;;;;5092831;28;20028;-84
2021/11/23 03:36:53;;;;;;;34.33;24.73;;;231.10;2252.80;;;;;;5094288;28;20028;-83
2021/11/23 03:39:19;;;;;;;39.47;27.35;;;231.00;2252.80;;;;;;5092791;28;20028;-84
2021/11/23 03:41:45;;;;;;;40.33;28.73;;;231.00;2252.80;;;;;;5092878;28;20490;-83
2021/11/23 03:44:11;;;;;;;30.45;22.20;;;231.00;2252.80;;;;;;5093156;28;20096;-84
2021/11/23 03:46:37;;;;;;;29.55;22.95;;;231.00;2252.80;;;;;;5092864;28;20039;-84
2021/11/23 03:49:03;;;;;;;37.65;27.45;;;231.00;2252.80;;;;;;5093839;28;20032;-84
2021/11/23 03:51:29;;;;;;;34.88;25.50;;;231.00;2252.80;;;;;;5092776;28;20098;-84
2021/11/23 03:53:55;;;;;;;35.10;25.48;;;230.90;2252.80;;;;;;5092477;28;20089;-84
2021/11/23 03:56:21;;;;;;;31.17;23.98;;;231.00;2252.80;;;;;;5092264;28;20491;-84
2021/11/23 03:58:47;;;;;;;29.30;23.35;;;230.90;2252.80;;;;;;5092721;28;20024;-84
2021/11/23 04:01:13;;;;;;;31.55;23.13;;;230.90;2252.80;;;;;;5093652;28;20032;-83
2021/11/23 04:03:38;;;;;;;25.15;19.55;;;230.90;2252.80;;;;;;5092624;28;20108;-84
2021/11/23 04:06:05;;;;;;;29.08;21.70;;;230.90;2252.80;;;;;;5092629;28;20122;-84
2021/11/23 04:08:32;;;;;;;23.25;19.02;;;230.90;2252.80;;;;;;5093705;28;20359;-84
2021/11/23 04:10:58;;;;;;;21.55;18.13;;;230.90;2252.80;;;;;;5093864;28;20026;-83
2021/11/23 04:13:25;;;;;;;20.95;17.40;;;231.00;2252.80;;;;;;5093931;28;20027;-84
2021/11/23 04:15:51;;;;;;;22.23;18.08;;;230.90;2252.80;;;;;;5093723;28;20028;-83
2021/11/23 04:18:18;;;;;;;20.35;17.20;;;230.90;2252.80;;;;;;5093682;28;20077;-84
2021/11/23 04:20:44;;;;;;;21.80;18.52;;;230.90;2252.80;;;;;;5092894;28;20132;-84
2021/11/23 04:23:10;;;;;;;21.63;17.83;;;230.90;2252.80;;;;;;5092392;28;20480;-84
2021/11/23 04:25:36;;;;;;;23.38;18.73;;;230.90;2252.80;;;;;;5095859;28;20024;-84
2021/11/23 04:28:02;;;;;;;21.13;16.77;;;230.90;2252.80;;;;;;5096157;28;20357;-84
2021/11/23 04:30:28;;;;;;;18.92;16.38;;;230.90;2252.80;;;;;;5096053;28;20035;-84
2021/11/23 04:32:54;;;;;;;18.98;16.27;;;230.90;2252.80;;;;;;5097328;28;20032;-84
2021/11/23 04:35:20;;;;;;;22.33;17.80;;;230.90;2252.80;;;;;;5096054;28;20028;-84
2021/11/23 04:37:47;;;;;;;24.20;18.60;;;230.90;2252.80;;;;;;5096081;28;20115;-84
2021/11/23 04:40:15;;;;;;;33.47;24.33;;;230.80;2252.80;;;;;;5096041;28;20039;-83
2021/11/23 04:42:41;;;;;;;29.15;21.13;;;230.80;2252.80;;;;;;5096521;28;20028;-83
2021/11/23 04:45:10;;;;;;;31.65;21.63;;;230.70;2252.80;;;;;;5098397;28;20035;-83
2021/11/23 04:47:37;;;;;;;28.08;21.52;;;230.80;2252.80;;;;;;5099510;28;20030;-83
2021/11/23 04:50:05;;;;;;;23.83;17.90;;;230.80;2252.80;;;;;;5101156;28;20024;-83
2021/11/23 04:52:31;;;;;;;29.90;21.15;;;230.80;2252.80;;;;;;5101209;28;20035;-82
2021/11/23 04:54:57;;;;;;;29.00;21.65;;;230.70;2252.80;;;;;;5098917;28;20024;-83
2021/11/23 04:57:24;;;;;;;27.13;19.92;;;230.80;2252.80;;;;;;5098655;28;20129;-83
2021/11/23 04:59:50;;;;;;;33.03;21.95;;;230.80;2252.80;;;;;;5100360;28;20028;-82
2021/11/23 05:02:16;;;;;;;26.50;18.92;;;230.80;2252.80;;;;;;5098404;28;20138;-83
2021/11/23 05:04:42;;;;;;;28.48;18.75;;;230.80;2252.80;;;;;;5098977;28;20052;-83
2021/11/23 05:07:08;;;;;;;31.35;22.02;;;230.70;2252.80;;;;;;5097885;28;20490;-83
2021/11/23 05:09:34;;;;;;;35.85;25.85;;;230.80;2252.80;;;;;;5097636;28;20535;-83
2021/11/23 05:11:59;;;;;;;37.10;24.50;;;230.80;2252.80;;;;;;5097857;28;20055;-82
2021/11/23 05:14:25;;;;;;;30.13;22.30;;;230.90;2252.80;;;;;;5098834;28;20126;-83
2021/11/23 05:16:52;;;;;;;30.20;23.50;;;230.80;2252.80;;;;;;5095481;28;20024;-82
2021/11/23 05:19:18;;;;;;;27.90;21.40;;;230.90;2252.80;;;;;;5095565;28;20032;-83
2021/11/23 05:21:44;;;;;;;37.45;23.83;;;230.80;2252.80;;;;;;5095478;28;20088;-83
2021/11/23 05:24:10;;;;;;;35.70;22.23;;;230.80;2252.80;;;;;;5096257;28;20024;-83
2021/11/23 05:26:37;;;;;;;25.15;16.88;;;230.70;2252.80;;;;;;5095047;28;20031;-83
2021/11/23 05:29:04;;;;;;;28.67;20.58;;;230.70;2252.80;;;;;;5095013;28;20191;-83
2021/11/23 05:31:30;;;;;;;25.85;17.83;;;230.70;2252.80;;;;;;5094781;28;20024;-82
2021/11/23 05:33:55;;;;;;;24.17;14.90;;;230.60;2252.80;;;;;;5096313;28;20024;-83
2021/11/23 05:36:21;;;;;;;20.05;14.27;;;230.50;2252.80;;;;;;5095290;28;20451;-82
2021/11/23 05:38:47;;;;;;;21.40;14.45;;;230.50;2252.80;;;;;;5094838;28;20142;-83
2021/11/23 05:41:13;;;;;;;19.85;13.98;;;230.50;2252.80;;;;;;5094802;28;20085;-82
2021/11/23 05:43:39;;;;;;;14.45;11.32;;;230.40;2252.80;;;;;;5094717;28;20028;-83
2021/11/23 05:46:05;;;;;;;16.88;13.10;;;230.40;2252.80;;;;;;5095883;28;20482;-83
2021/11/23 05:48:31;;;;;;;15.82;11.45;;;230.40;2252.80;;;;;;5094765;28;20024;-83
2021/11/23 05:51:02;;;;;;;14.15;11.07;;;230.40;2252.80;;;;;;5094724;28;20024;-77
2021/11/23 05:53:30;;;;;;;29.60;19.90;;;230.40;2252.80;;;;;;5094332;28;20035;-83
2021/11/23 05:55:56;;;;;;;16.70;13.10;;;230.40;2252.80;;;;;;5094461;28;20044;-83
2021/11/23 05:58:21;;;;;;;12.48;10.07;;;205.70;2252.80;;;;;;5095849;28;20426;-83
2021/11/23 06:00:47;;;;;;;13.30;10.82;;;205.70;2252.80;;;;;;5094371;28;20115;-84
2021/11/23 06:03:13;;;;;;;13.35;10.90;;;205.70;2252.80;;;;;;5094506;28;20028;-83
2021/11/23 06:05:39;;;;;;;18.50;12.82;;;205.70;2252.80;;;;;;5094588;28;20056;-83
2021/11/23 06:08:05;;;;;;;25.25;15.43;;;205.70;2252.80;;;;;;5093901;28;20118;-82
2021/11/23 06:10:31;;;;;;;17.13;12.93;;;205.70;2252.80;;;;;;5094287;28;20067;-82
2021/11/23 06:12:56;;;;;;;15.50;10.32;;;205.70;2252.80;;;;;;5093831;28;20091;-82
2021/11/23 06:15:23;;;;;;;16.70;12.43;;;205.70;2252.80;;;;;;5095682;28;20469;-82
2021/11/23 06:17:57;;;;;;;12.70;10.48;;;205.70;2252.80;;;;;;5095411;28;20051;-82
2021/11/23 06:20:23;;;;;;;13.55;10.45;;;230.40;2252.80;;;;;;5093816;28;20225;-82
2021/11/23 06:22:49;;;;;;;17.40;12.35;;;205.70;2252.80;;;;;;5095176;28;20020;-82
2021/11/23 06:25:14;;;;;;;21.73;15.07;;;230.40;2252.80;;;;;;5093870;28;20047;-82
2021/11/23 06:27:40;;;;;;;23.70;15.02;;;230.40;2252.80;;;;;;5093584;28;20035;-83
2021/11/23 06:30:07;;;;;;;20.90;15.25;;;230.40;2252.80;;;;;;5093891;28;20104;-82
2021/11/23 06:32:33;;;;;;;18.20;13.70;;;230.40;2252.80;;;;;;5095507;28;20025;-82
2021/11/23 06:34:59;;;;;;;17.27;12.52;;;230.40;2252.80;;;;;;5093664;28;20116;-83
2021/11/23 06:37:25;;;;;;;31.10;20.60;;;230.40;2252.80;;;;;;5093801;28;20114;-83
2021/11/23 06:39:51;;;;;;;34.38;22.23;;;230.40;2252.80;;;;;;5093583;28;20387;-83
2021/11/23 06:42:16;;;;;;;30.48;20.48;;;230.50;2252.80;;;;;;5093569;28;20035;-83
2021/11/23 06:44:42;;;;;;;43.67;26.30;;;230.40;2252.80;;;;;;5093791;28;20028;-83
2021/11/23 06:47:08;;;;;;;43.55;27.50;;;230.40;2252.80;;;;;;5094689;28;20032;-82
2021/11/23 06:49:34;;;;;;;48.17;30.92;;;230.40;2252.80;;;;;;5093365;28;20028;-83
2021/11/23 06:52:00;;;;;;;26.70;18.48;;;230.50;2252.80;;;;;;5093271;28;20020;-82
2021/11/23 06:54:26;;;;;;;21.48;14.85;;;230.40;2252.80;;;;;;5093715;28;20086;-83
2021/11/23 06:56:55;;;;;;;25.52;14.90;;;230.40;2252.80;;;;;;5093104;28;20044;-82
2021/11/23 06:59:21;;;;;;;39.92;24.75;;;230.40;2252.80;;;;;;5094464;28;20119;-82
2021/11/23 07:01:47;;;;;;;51.38;34.00;;;230.40;2252.80;;;;;;5094598;28;20055;-83
2021/11/23 07:04:13;;;;;;;44.72;30.10;;;230.40;2252.80;;;;;;5094696;28;20107;-83
2021/11/23 07:06:38;;;;;;;23.95;16.10;;;230.50;2252.80;;;;;;5093735;28;20039;-82
2021/11/23 07:09:04;;;;;;;21.35;15.73;;;230.50;2252.80;;;;;;5093206;28;20034;-82
2021/11/23 07:11:30;;;;;;;32.10;19.88;;;230.40;2252.80;;;;;;5093281;28;20384;-83
2021/11/23 07:13:56;;;;;;;44.88;28.42;;;230.40;2252.80;;;;;;5093524;28;20024;-83
2021/11/23 07:16:21;;;;;;;37.70;22.45;;;230.40;2252.80;;;;;;5092952;28;20024;-83
2021/11/23 07:18:47;;;;;;;36.20;21.90;;;230.40;2252.80;;;;;;5094384;28;20524;-83
2021/11/23 07:21:13;;;;;;;33.35;21.10;;;205.70;2252.80;;;;;;5093176;28;20036;-83
2021/11/23 07:23:39;;;;;;;47.03;28.60;;;205.70;2252.80;;;;;;5093877;28;20020;-82
2021/11/23 07:26:05;;;;;;;35.60;22.63;;;230.40;2252.80;;;;;;5093110;28;20031;-82
2021/11/23 07:28:30;;;;;;;67.82;37.00;;;230.40;2252.80;;;;;;5092941;28;20062;-82
2021/11/23 07:30:57;;;;;;;73.95;38.45;;;230.40;2252.80;;;;;;5093809;28;20460;-82
2021/11/23 07:33:23;;;;;;;80.35;45.83;;;230.40;2252.80;;;;;;5093013;28;20052;-82
2021/11/23 07:35:50;;;;;;;98.50;56.92;;;230.40;2252.80;;;;;;5093829;28;20027;-82
2021/11/23 07:38:15;;;;;;;124.85;65.57;;;205.70;2252.80;;;;;;5092500;28;20124;-84
2021/11/23 07:40:41;;;;;;;108.22;55.20;;;230.50;2252.80;;;;;;5092688;28;20114;-84
2021/11/23 07:43:07;;;;;;;95.10;46.25;;;230.50;2252.80;;;;;;5094222;28;20024;-84
2021/11/23 07:45:33;;;;;;;54.97;34.03;;;230.50;2252.80;;;;;;5092610;28;20471;-84
2021/11/23 07:47:59;;;;;;;46.90;30.42;;;230.50;2252.80;;;;;;5094278;28;20116;-84
2021/11/23 07:50:24;;;;;;;42.33;28.30;;;230.40;2252.80;;;;;;5092968;28;20082;-84
2021/11/23 07:52:50;;;;;;;33.08;24.88;;;230.40;2252.80;;;;;;5092696;28;20023;-84
2021/11/23 07:55:16;;;;;;;38.83;28.27;;;230.40;2252.80;;;;;;5094044;28;20035;-84
2021/11/23 07:57:43;;;;;;;36.60;26.77;;;230.50;2252.80;;;;;;5092525;28;20036;-84
2021/11/23 08:00:10;;;;;;;60.92;36.35;;;230.50;2252.80;;;;;;5094994;28;20039;-84
2021/11/23 08:02:35;;;;;;;68.15;54.00;;;205.60;2252.80;;;;;;5096686;28;20028;-84
2021/11/23 08:05:02;;;;;;;39.85;29.33;;;230.50;2252.80;;;;;;5096522;28;20020;-84
2021/11/23 08:07:28;;;;;;;34.85;26.08;;;230.50;2252.80;;;;;;5096788;28;20047;-84
2021/11/23 08:09:54;;;;;;;24.90;18.80;;;230.40;2252.80;;;;;;5096898;28;20450;-84
2021/11/23 08:12:20;;;;;;;32.30;24.55;;;230.50;2252.80;;;;;;5096413;28;20031;-84
2021/11/23 08:14:46;;;;;;;40.90;26.30;;;230.50;2252.80;;;;;;5096801;28;20389;-84
2021/11/23 08:17:11;;;;;;;45.75;29.00;;;230.40;2252.80;;;;;;5096783;28;20116;-83
2021/11/23 08:19:37;;;;;;;53.90;34.30;;;230.40;2252.80;;;;;;5096520;28;20028;-85
2021/11/23 08:22:03;;;;;;;37.20;25.35;;;230.40;2252.80;;;;;;5096698;28;20036;-86
2021/11/23 08:24:29;;;;;;;71.68;39.58;;;230.40;2252.80;;;;;;5097766;28;20103;-84
2021/11/23 08:26:58;;;;;;;94.22;52.05;;;230.40;2252.80;;;;;;5096297;28;20026;-84
2021/11/23 08:29:25;;;;;;;67.10;38.28;;;230.40;2252.80;;;;;;5096357;28;20070;-84
2021/11/23 08:31:50;;;;;;;69.75;41.88;;;230.70;2252.80;;;;;;5096203;28;20024;-83
2021/11/23 08:34:18;;;;;;;101.28;58.58;;;230.40;2252.80;;;;;;5095986;28;20028;-83
2021/11/23 08:36:44;;;;;;;53.42;35.33;;;230.50;2252.80;;;;;;5096018;28;20100;-83
2021/11/23 08:39:10;;;;;;;47.40;34.15;;;230.40;2252.80;;;;;;5097300;28;20083;-83
2021/11/23 08:41:35;;;;;;;57.10;37.85;;;230.50;2252.80;;;;;;5096921;28;20028;-83
2021/11/23 08:44:02;;;;;;;60.80;37.08;;;205.70;2252.80;;;;;;5095946;28;20028;-83
2021/11/23 08:46:28;;;;;;;43.95;29.80;;;230.50;2252.80;;;;;;5096061;28;20478;-83
2021/11/23 08:48:54;;;;;;;39.47;29.02;;;230.50;2252.80;;;;;;5095735;28;20035;-83
2021/11/23 08:51:24;;;;;;;36.47;27.90;;;230.60;2252.80;;;;;;5095847;28;20379;-83
2021/11/23 08:53:51;;;;;;;40.83;29.67;;;230.60;2252.80;;;;;;5095823;28;20050;-82
2021/11/23 08:56:17;;;;;;;40.40;29.60;;;230.60;2252.80;;;;;;5095481;28;20568;-77
2021/11/23 08:58:46;;;;;;;53.20;30.23;;;230.60;2252.80;;;;;;5096904;28;20368;-79
2021/11/23 09:01:12;;;;;;;52.55;30.00;;;230.60;2252.80;;;;;;5094954;28;20047;-80
2021/11/23 09:03:39;;;;;;;78.10;46.55;;;230.50;2252.80;;;;;;5096672;28;20020;-77
2021/11/23 09:06:06;;;;;;;55.92;35.80;;;230.60;2252.80;;;;;;5095300;28;20038;-81
2021/11/23 09:08:35;;;;;;;37.35;25.38;;;230.60;2252.80;;;;;;5095011;28;20577;-82
2021/11/23 09:11:01;;;;;;;39.60;28.17;;;230.60;2252.80;;;;;;5094253;28;20031;-83
2021/11/23 09:13:27;;;;;;;38.03;25.50;;;230.60;2252.80;;;;;;5095145;28;20024;-83
2021/11/23 09:15:53;;;;;;;30.15;20.55;;;230.60;2252.80;;;;;;5094921;28;20028;-80
2021/11/23 09:18:19;;;;;;;38.33;27.25;;;230.50;2252.80;;;;;;5094978;28;20035;-79
2021/11/23 09:20:45;;;;;;;36.17;25.08;;;230.50;2252.80;;;;;;5094905;28;20032;-76
2021/11/23 09:23:13;;;;;;;44.10;32.33;;;230.50;2252.80;;;;;;5094672;28;20136;-79
2021/11/23 09:25:40;;;;;;;56.38;37.47;;;230.50;2252.80;;;;;;5096000;28;20372;-83
2021/11/23 09:28:06;;;;;;;39.03;29.17;;;230.40;2252.80;;;;;;5094881;28;20024;-83
2021/11/23 09:30:33;;;;;;;39.08;27.83;;;230.50;2252.80;;;;;;5096282;28;20353;-83
2021/11/23 09:33:01;;;;;;;40.60;31.35;;;230.50;2252.80;;;;;;5095101;28;20112;-82
2021/11/23 09:35:27;;;;;;;31.92;22.85;;;230.50;2252.80;;;;;;5094851;28;20029;-84
2021/11/23 09:37:54;;;;;;;20.50;13.20;;;230.40;2252.80;;;;;;5094478;28;20429;-79
2021/11/23 09:40:21;;;;;;;27.65;21.48;;;230.40;2252.80;;;;;;5094300;28;20085;-80
2021/11/23 09:42:48;;;;;;;40.92;31.98;;;205.50;2252.80;;;;;;5094293;28;20435;-78
2021/11/23 09:45:14;;;;;;;44.85;35.05;;;230.50;2252.80;;;;;;5094467;28;20479;-81
2021/11/23 09:47:40;;;;;;;34.25;27.23;;;230.50;2252.80;;;;;;5094405;28;20028;-81
2021/11/23 09:50:07;;;;;;;36.53;27.40;;;230.60;2252.80;;;;;;5093969;28;20042;-81
2021/11/23 09:52:34;;;;;;;36.97;26.17;;;230.50;2252.80;;;;;;5094099;28;20028;-77
2021/11/23 09:55:00;;;;;;;40.53;28.77;;;230.60;2252.80;;;;;;5095372;28;20024;-78
2021/11/23 09:57:26;;;;;;;41.17;31.08;;;230.50;2252.80;;;;;;5095350;28;20020;-77
2021/11/23 09:59:51;;;;;;;30.95;22.60;;;230.50;2252.80;;;;;;5093669;28;20132;-77
2021/11/23 10:02:33;;;;;;;38.25;26.55;;;230.60;2252.80;;;;;;5095334;28;20032;-78
2021/11/23 10:05:04;;;;;;;44.00;29.48;;;230.60;2252.80;;;;;;5095298;28;20027;-78
2021/11/23 10:07:43;;;;;;;36.55;26.20;;;230.60;2252.80;;;;;;5094265;28;20024;-78
2021/11/23 10:10:27;;;;;;;38.22;30.80;;;230.70;2252.80;;;;;;5094121;28;20036;-80
2021/11/23 10:13:00;;;;;;;34.45;22.40;;;230.60;2252.80;;;;;;5093839;28;20077;-77
2021/11/23 10:15:36;;;;;;;35.40;24.23;;;230.60;2252.80;;;;;;5094003;28;20024;-79
2021/11/23 10:18:37;;;;;;;40.40;29.10;;;230.60;2252.80;;;;;;5093638;28;20034;-80
2021/11/23 10:21:06;;;;;;;55.63;36.05;;;230.60;2252.80;;;;;;5090688;28;20072;-76
2021/11/23 10:23:41;;;;;;;55.75;38.55;;;230.60;2252.80;;;;;;5093345;28;20024;-78
2021/11/23 10:26:31;;;;;;;72.55;51.83;;;230.70;2252.80;;;;;;5093611;28;20058;-78
2021/11/23 10:29:01;;;;;;;43.80;32.40;;;230.70;2252.80;;;;;;5093621;28;20120;-77
2021/11/23 10:31:41;;;;;;;70.40;49.83;;;230.70;2252.80;;;;;;5093536;28;20491;-79
2021/11/23 10:34:11;;;;;;;38.88;29.42;;;230.80;2252.80;;;;;;5094266;28;20476;-80
2021/11/23 10:36:44;;;;;;;43.28;31.75;;;230.80;2252.80;;;;;;5093494;28;20481;-79
2021/11/23 10:39:13;;;;;;;45.92;35.85;;;230.80;2252.80;;;;;;5093124;28;20032;-77
2021/11/23 10:41:42;;;;;;;42.58;28.63;;;230.80;2252.80;;;;;;5093370;28;20086;-77
2021/11/23 10:44:25;;;;;;;31.65;24.17;;;230.80;2252.80;;;;;;5093537;28;20111;-77
2021/11/23 10:46:56;;;;;;;26.98;19.67;;;230.90;2252.80;;;;;;5092969;28;20097;-78
2021/11/23 10:49:30;;;;;;;27.60;20.40;;;230.90;2252.80;;;;;;5093214;28;20121;-77
2021/11/23 10:51:57;;;;;;;27.38;16.50;;;230.80;2252.80;;;;;;5093265;28;20055;-79
2021/11/23 10:54:23;;;;;;;24.63;18.55;;;230.80;2252.80;;;;;;5092773;28;20028;-78
2021/11/23 10:57:06;;;;;;;39.90;30.10;;;230.80;2252.80;;;;;;5096680;28;20479;-82
2021/11/23 10:59:42;;;;;;;66.75;47.58;;;230.80;2252.80;;;;;;5102780;28;20035;-78
2021/11/23 11:03:16;;;;;;;47.65;35.55;;;230.90;2252.80;;;;;;5097646;28;20121;-78
2021/11/23 11:05:43;;;;;;;127.90;83.70;;;230.90;2252.80;;;;;;5102985;28;20083;-79
2021/11/23 11:08:10;;;;;;;108.85;79.60;;;230.70;2252.80;;;;;;5092618;28;20085;-77
2021/11/23 11:10:38;;;;;;;84.88;54.47;;;231.00;2252.80;;;;;;5092932;28;20112;-81
2021/11/23 11:13:09;;;;;;;74.07;49.47;;;231.00;2252.80;;;;;;5093016;28;20081;-81
2021/11/23 11:15:43;;;;;;;58.17;37.28;;;231.00;2252.80;;;;;;5094388;28;20020;-82
2021/11/23 11:18:13;;;;;;;58.78;37.55;;;230.90;2252.80;;;;;;5093213;28;20115;-81
2021/11/23 11:20:45;;;;;;;40.28;29.15;;;230.90;2252.80;;;;;;5094361;28;20032;-79
2021/11/23 17:58:26;;;;;;;54.50;40.22;;;205.10;2252.80;;;;;;5111526;27;20372;-85
2021/11/23 18:00:57;;;;;;;62.97;42.30;;;230.40;2252.80;;;;;;5093488;28;20024;-84
2021/11/23 18:03:32;;;;;;;50.78;35.40;;;230.50;2252.80;;;;;;5093377;28;20093;-84
2021/11/23 18:05:59;;;;;;;57.53;38.70;;;230.40;2252.80;;;;;;5093646;28;20063;-84
2021/11/23 18:08:25;;;;;;;58.83;39.25;;;230.40;2252.80;;;;;;5092257;28;20024;-83
2021/11/23 18:10:52;;;;;;;70.13;45.35;;;230.40;2252.80;;;;;;5092865;28;20115;-84
2021/11/23 18:13:18;;;;;;;70.35;47.38;;;205.70;2252.80;;;;;;5093227;28;20024;-83
2021/11/23 18:15:44;;;;;;;50.08;31.42;;;205.60;2252.80;;;;;;5092642;28;20469;-83
2021/11/23 18:18:14;;;;;;;52.22;36.60;;;205.60;2252.80;;;;;;5093220;28;20031;-84
2021/11/23 18:20:49;;;;;;;93.82;57.92;;;205.70;2252.80;;;;;;5092979;28;20073;-84
2021/11/23 18:23:16;;;;;;;114.50;66.68;;;205.70;2252.80;;;;;;5093009;28;20362;-84
2021/11/23 18:25:43;;;;;;;60.90;42.35;;;205.70;2252.80;;;;;;5093160;28;20418;-83
2021/11/23 18:28:09;;;;;;;56.85;40.78;;;230.40;2252.80;;;;;;5092733;28;20028;-83
2021/11/23 18:30:35;;;;;;;56.75;40.35;;;230.40;2252.80;;;;;;5093005;28;20101;-83
2021/11/23 18:33:01;;;;;;;62.92;43.50;;;205.70;2252.80;;;;;;5093070;28;20023;-84
2021/11/23 18:35:29;;;;;;;72.18;51.22;;;205.70;2252.80;;;;;;5093012;28;20028;-85